createdAt,value
2023-01-20T00:00:35.271Z,65.88
2023-01-20T00:03:02.058Z,66.08
2023-01-20T00:05:28.532Z,67.11
2023-01-20T00:07:55.325Z,65.84
2023-01-20T00:10:21.830Z,65.47
2023-01-20T00:12:48.312Z,65.34
2023-01-20T00:15:15.248Z,65.60
2023-01-20T00:17:41.981Z,65.31
2023-01-20T00:20:09.432Z,65.07
2023-01-20T00:22:42.017Z,64.79
2023-01-20T00:25:11.880Z,65.78
2023-01-20T00:27:38.757Z,65.41
2023-01-20T00:30:05.939Z,64.88
2023-01-20T00:32:39.675Z,65.59
2023-01-20T00:35:07.322Z,65.22
2023-01-20T00:37:33.797Z,66.29
2023-01-20T00:40:00.599Z,65.79
2023-01-20T00:42:27.101Z,66.13
2023-01-20T00:44:53.611Z,66.84
2023-01-20T00:47:20.978Z,67.04
2023-01-20T00:49:47.929Z,66.71
2023-01-20T00:52:15.149Z,66.14
2023-01-20T00:54:41.646Z,64.92
2023-01-20T00:57:08.150Z,65.31
2023-01-20T00:59:34.651Z,64.42
2023-01-20T01:02:02.059Z,64.52
2023-01-20T01:04:28.661Z,64.49
2023-01-20T01:06:55.145Z,63.86
2023-01-20T01:09:21.869Z,63.45
2023-01-20T01:11:48.876Z,64.72
2023-01-20T01:14:16.431Z,65.07
2023-01-20T01:16:43.255Z,64.33
2023-01-20T01:19:09.827Z,64.20
2023-01-20T01:21:36.336Z,63.95
2023-01-20T01:24:02.896Z,64.06
2023-01-20T01:26:30.039Z,63.96
2023-01-20T01:28:56.566Z,63.54
2023-01-20T01:31:23.187Z,64.49
2023-01-20T01:33:50.089Z,63.58
2023-01-20T01:36:17.338Z,62.35
2023-01-20T01:38:44.651Z,62.22
2023-01-20T01:41:18.243Z,62.48
2023-01-20T01:44:09.294Z,63.87
2023-01-20T01:46:36.439Z,64.12
2023-01-20T01:49:15.790Z,63.63
2023-01-20T01:51:47.611Z,64.28
2023-01-20T01:54:18.701Z,64.04
2023-01-20T01:56:47.426Z,63.43
2023-01-20T01:59:15.231Z,63.18
2023-01-20T02:01:47.003Z,64.00
2023-01-20T02:04:15.978Z,64.23
2023-01-20T02:06:49.694Z,65.58
2023-01-20T02:09:16.775Z,66.25
2023-01-20T02:11:48.610Z,65.80
2023-01-20T02:14:20.328Z,65.50
2023-01-20T02:17:28.504Z,65.16
2023-01-20T02:20:02.862Z,65.96
2023-01-20T02:23:07.244Z,66.74
2023-01-20T02:25:42.102Z,67.00
2023-01-20T02:28:23.414Z,67.66
2023-01-20T02:31:13.975Z,67.19
2023-01-20T02:34:03.034Z,67.35
2023-01-20T02:36:43.368Z,67.20
2023-01-20T02:39:26.960Z,67.43
2023-01-20T02:42:01.038Z,67.12
2023-01-20T02:44:38.379Z,66.50
2023-01-20T02:47:19.945Z,65.74
2023-01-20T02:49:55.367Z,65.35
2023-01-20T02:52:28.101Z,66.07
2023-01-20T02:54:59.152Z,65.73
2023-01-20T02:57:32.822Z,66.13
2023-01-20T03:00:07.752Z,65.61
2023-01-20T03:02:37.592Z,67.54
2023-01-20T03:05:17.459Z,66.59
2023-01-20T03:07:45.801Z,65.57
2023-01-20T03:10:18.793Z,66.99
2023-01-20T03:12:56.605Z,65.96
2023-01-20T03:15:32.453Z,65.06
2023-01-20T03:17:59.032Z,64.46
2023-01-20T03:20:25.577Z,64.99
2023-01-20T03:22:52.108Z,64.46
2023-01-20T03:25:20.285Z,66.39
2023-01-20T03:27:47.226Z,65.48
2023-01-20T03:30:17.877Z,66.29
2023-01-20T03:32:47.826Z,67.53
2023-01-20T03:35:16.644Z,67.92
2023-01-20T03:37:44.056Z,68.50
2023-01-20T03:40:12.154Z,67.27
2023-01-20T03:42:45.604Z,68.21
2023-01-20T03:45:30.596Z,67.45
2023-01-20T03:48:06.501Z,67.96
2023-01-20T03:50:51.358Z,66.52
2023-01-20T03:53:37.365Z,67.40
2023-01-20T03:56:03.897Z,67.35
2023-01-20T03:58:36.219Z,67.13
2023-01-20T04:01:08.879Z,67.66
2023-01-20T04:03:48.870Z,66.80
2023-01-20T04:06:17.815Z,67.35
2023-01-20T04:08:51.202Z,66.30
2023-01-20T04:11:18.434Z,66.84
2023-01-20T04:13:44.952Z,65.79
2023-01-20T04:16:17.759Z,65.22
2023-01-20T04:18:47.722Z,64.44
2023-01-20T04:21:22.346Z,65.30
2023-01-20T04:23:55.177Z,67.22
2023-01-20T04:26:21.688Z,65.71
2023-01-20T04:28:48.360Z,65.41
2023-01-20T04:31:29.264Z,64.96
2023-01-20T04:33:57.125Z,65.32
2023-01-20T04:36:23.682Z,65.23
2023-01-20T04:38:50.196Z,64.22
2023-01-20T04:41:16.686Z,64.26
2023-01-20T04:43:45.168Z,63.84
2023-01-20T04:46:15.817Z,63.96
2023-01-20T04:48:44.874Z,63.32
2023-01-20T04:51:11.887Z,64.46
2023-01-20T04:53:38.900Z,64.19
2023-01-20T04:56:10.788Z,64.23
2023-01-20T04:58:37.686Z,65.74
2023-01-20T05:01:04.227Z,66.59
2023-01-20T05:03:30.768Z,65.45
2023-01-20T05:05:57.263Z,65.79
2023-01-20T05:08:23.824Z,64.64
2023-01-20T05:10:50.322Z,66.11
2023-01-20T05:13:17.205Z,65.89
2023-01-20T05:15:44.532Z,65.08
2023-01-20T05:18:11.248Z,63.83
2023-01-20T05:20:37.970Z,63.19
2023-01-20T05:23:04.746Z,63.08
2023-01-20T05:25:31.262Z,63.34
2023-01-20T05:27:59.106Z,62.56
2023-01-20T05:30:25.648Z,62.80
2023-01-20T05:32:52.254Z,63.92
2023-01-20T05:35:19.446Z,63.92
2023-01-20T05:37:46.135Z,64.07
2023-01-20T05:40:13.532Z,63.90
2023-01-20T05:42:40.099Z,64.62
2023-01-20T05:45:07.218Z,62.93
2023-01-20T05:47:33.704Z,63.06
2023-01-20T05:50:00.209Z,61.72
2023-01-20T05:52:26.726Z,61.38
2023-01-20T05:54:53.250Z,61.91
2023-01-20T05:57:19.765Z,62.76
2023-01-20T05:59:47.617Z,62.27
2023-01-20T06:02:18.553Z,63.36
2023-01-20T06:04:49.069Z,63.22
2023-01-20T06:07:15.970Z,63.32
2023-01-20T06:09:42.758Z,62.62
2023-01-20T06:12:09.308Z,62.67
2023-01-20T06:14:35.844Z,62.41
2023-01-20T06:17:02.375Z,61.70
2023-01-20T06:19:29.012Z,61.19
2023-01-20T06:21:55.699Z,61.46
2023-01-20T06:24:22.216Z,61.88
2023-01-20T06:26:50.890Z,61.26
2023-01-20T06:29:17.802Z,61.04
2023-01-20T06:31:45.431Z,60.57
2023-01-20T06:34:13.015Z,60.78
2023-01-20T06:36:40.047Z,60.34
2023-01-20T06:39:06.691Z,60.00
2023-01-20T06:41:33.521Z,59.97
2023-01-20T06:44:00.074Z,59.63
2023-01-20T06:46:27.086Z,59.55
2023-01-20T06:49:00.106Z,59.69
2023-01-20T06:51:28.955Z,59.55
2023-01-20T06:53:55.892Z,59.16
2023-01-20T06:56:22.664Z,60.63
2023-01-20T06:58:49.533Z,61.08
2023-01-20T07:01:21.727Z,60.26
2023-01-20T07:03:48.783Z,59.72
2023-01-20T07:06:30.086Z,58.86
2023-01-20T07:08:58.851Z,59.12
2023-01-20T07:11:25.795Z,59.65
2023-01-20T07:13:52.744Z,59.61
2023-01-20T07:16:19.365Z,59.35
2023-01-20T07:18:51.693Z,59.96
2023-01-20T07:21:18.901Z,60.21
2023-01-20T07:23:45.823Z,60.44
2023-01-20T07:26:19.319Z,59.40
2023-01-20T07:28:46.367Z,59.47
2023-01-20T07:31:22.552Z,58.58
2023-01-20T07:33:50.302Z,59.49
2023-01-20T07:36:18.518Z,58.39
2023-01-20T07:38:49.357Z,57.92
2023-01-20T07:41:18.096Z,57.87
2023-01-20T07:43:45.553Z,57.77
2023-01-20T07:46:12.794Z,57.55
2023-01-20T07:48:39.666Z,57.68
2023-01-20T07:51:09.062Z,57.33
2023-01-20T07:53:47.410Z,57.05
2023-01-20T07:56:15.631Z,56.94
2023-01-20T07:58:45.132Z,56.64
2023-01-20T08:01:17.979Z,56.38
2023-01-20T08:03:45.082Z,56.53
2023-01-20T08:06:13.815Z,56.40
2023-01-20T08:08:40.313Z,56.69
2023-01-20T08:11:08.249Z,56.51
2023-01-20T08:13:35.270Z,55.96
2023-01-20T08:16:05.271Z,55.76
2023-01-20T08:18:32.821Z,55.45
2023-01-20T08:20:59.852Z,55.82
2023-01-20T08:23:26.542Z,55.27
2023-01-20T08:26:05.584Z,55.35
2023-01-20T08:28:34.954Z,55.06
2023-01-20T08:31:16.506Z,54.82
2023-01-20T08:33:44.278Z,55.23
2023-01-20T08:36:23.864Z,55.30
2023-01-20T08:38:51.191Z,55.19
2023-01-20T08:41:20.903Z,54.71
2023-01-20T08:43:47.818Z,54.94
2023-01-20T08:46:16.444Z,55.15
2023-01-20T08:48:43.759Z,55.26
2023-01-20T08:51:16.324Z,55.58
2023-01-20T08:53:43.356Z,55.24
2023-01-20T08:56:11.337Z,54.86
2023-01-20T08:58:38.138Z,55.53
2023-01-20T09:01:09.497Z,55.60
2023-01-20T09:03:36.512Z,56.34
2023-01-20T09:06:04.282Z,55.76
2023-01-20T09:08:30.844Z,56.70
2023-01-20T09:11:03.153Z,56.68
2023-01-20T09:13:29.678Z,56.14
2023-01-20T09:15:56.419Z,56.89
2023-01-20T09:18:23.188Z,56.77
2023-01-20T09:20:49.689Z,56.98
2023-01-20T09:23:16.231Z,56.13
2023-01-20T09:25:42.758Z,55.67
2023-01-20T09:28:09.667Z,56.16
2023-01-20T09:30:36.209Z,56.08
2023-01-20T09:33:03.256Z,56.67
2023-01-20T09:35:29.807Z,59.18
2023-01-20T09:38:14.835Z,59.13
2023-01-20T09:41:28.481Z,56.51
2023-01-20T09:44:13.761Z,54.39
2023-01-20T09:47:14.925Z,49.96
2023-01-20T09:50:29.393Z,48.29
2023-01-20T09:53:25.604Z,48.56
2023-01-20T09:56:02.523Z,49.25
2023-01-20T09:58:31.727Z,49.06
2023-01-20T10:01:20.205Z,48.39
2023-01-20T10:03:59.879Z,48.90
2023-01-20T10:06:34.756Z,49.11
2023-01-20T10:09:06.681Z,49.89
2023-01-20T10:11:40.045Z,49.96
2023-01-20T10:14:23.843Z,50.96
2023-01-20T10:16:53.961Z,51.85
2023-01-20T10:19:31.503Z,51.01
2023-01-20T10:22:06.988Z,51.54
2023-01-20T10:24:45.824Z,51.80
2023-01-20T10:27:12.368Z,51.63
2023-01-20T10:29:44.492Z,52.29
2023-01-20T10:32:27.542Z,51.26
2023-01-20T10:34:56.802Z,52.05
2023-01-20T10:37:23.922Z,51.75
2023-01-20T10:39:58.368Z,49.83
2023-01-20T10:42:28.237Z,50.62
2023-01-20T10:44:55.277Z,50.17
2023-01-20T10:47:37.236Z,50.44
2023-01-20T10:50:30.357Z,50.66
2023-01-20T10:53:15.829Z,48.56
2023-01-20T10:55:48.894Z,46.02
2023-01-20T10:58:24.123Z,45.63
2023-01-20T11:00:51.111Z,45.42
2023-01-20T11:03:22.853Z,44.52
2023-01-20T11:05:51.733Z,43.42
2023-01-20T11:08:21.392Z,44.60
2023-01-20T11:10:51.783Z,44.47
2023-01-20T11:13:18.306Z,44.92
2023-01-20T11:15:47.910Z,45.44
2023-01-20T11:18:14.432Z,46.53
2023-01-20T11:20:52.160Z,46.36
2023-01-20T11:23:40.639Z,47.05
2023-01-20T11:26:17.909Z,47.08
2023-01-20T11:28:49.391Z,47.79
2023-01-20T11:31:16.976Z,48.49
2023-01-20T11:34:02.675Z,47.57
2023-01-20T11:36:29.964Z,47.69
2023-01-20T11:38:57.553Z,46.76
2023-01-20T11:41:29.523Z,46.52
2023-01-20T11:43:58.254Z,46.61
2023-01-20T11:46:32.071Z,46.93
2023-01-20T11:49:17.744Z,47.34
2023-01-20T11:51:47.555Z,47.51
2023-01-20T11:54:28.929Z,48.14
2023-01-20T11:57:00.347Z,48.13
2023-01-20T11:59:31.302Z,49.12
2023-01-20T12:02:04.930Z,48.99
2023-01-20T12:04:56.850Z,48.94
2023-01-20T12:07:29.259Z,49.69
2023-01-20T12:10:03.879Z,49.55
2023-01-20T12:12:39.817Z,49.63
2023-01-20T12:15:15.690Z,50.06
2023-01-20T12:17:51.658Z,50.28
2023-01-20T12:20:27.009Z,50.12
2023-01-20T12:23:21.522Z,50.61
2023-01-20T12:26:00.516Z,50.69
2023-01-20T12:28:53.839Z,50.97
2023-01-20T12:31:23.835Z,50.90
2023-01-20T12:33:59.579Z,50.75
2023-01-20T12:36:26.306Z,50.42
2023-01-20T12:39:01.608Z,50.27
2023-01-20T12:41:48.734Z,50.31
2023-01-20T12:44:27.734Z,50.31
2023-01-20T12:47:19.480Z,50.31
2023-01-20T12:49:57.898Z,50.83
2023-01-20T12:52:39.634Z,50.63
2023-01-20T12:55:28.695Z,51.14
2023-01-20T12:58:08.214Z,51.30
2023-01-20T13:01:11.399Z,50.89
2023-01-20T13:03:50.244Z,50.08
2023-01-20T13:06:55.740Z,49.68
2023-01-20T13:09:37.719Z,49.72
2023-01-20T13:12:34.969Z,50.03
2023-01-20T13:15:13.711Z,49.77
2023-01-20T13:18:15.152Z,50.33
2023-01-20T13:20:45.458Z,50.55
2023-01-20T13:23:20.330Z,49.96
2023-01-20T13:25:47.564Z,49.95
2023-01-20T13:28:26.641Z,50.45
2023-01-20T13:30:58.155Z,51.52
2023-01-20T13:33:35.066Z,53.28
2023-01-20T13:36:20.480Z,54.28
2023-01-20T13:38:49.006Z,54.03
2023-01-20T13:41:48.307Z,53.46
2023-01-20T13:44:37.785Z,54.09
2023-01-20T13:47:08.329Z,53.90
2023-01-20T13:49:43.940Z,53.54
2023-01-20T13:52:11.898Z,53.13
2023-01-20T13:54:43.545Z,53.01
2023-01-20T13:57:27.908Z,52.81
2023-01-20T13:59:55.843Z,53.21
2023-01-20T14:02:27.828Z,53.17
2023-01-20T14:04:56.197Z,52.83
2023-01-20T14:07:31.072Z,52.66
2023-01-20T14:09:59.701Z,52.98
2023-01-20T14:12:26.994Z,52.18
2023-01-20T14:14:54.422Z,51.93
2023-01-20T14:17:24.329Z,52.10
2023-01-20T14:19:53.508Z,52.20
2023-01-20T14:22:28.239Z,52.23
2023-01-20T14:25:00.664Z,52.11
2023-01-20T14:27:37.671Z,52.38
2023-01-20T14:30:23.363Z,52.19
2023-01-20T14:32:51.202Z,52.13
2023-01-20T14:35:27.915Z,51.72
2023-01-20T14:37:54.862Z,51.81
2023-01-20T14:40:34.737Z,51.45
2023-01-20T14:43:16.931Z,51.06
2023-01-20T14:45:46.359Z,50.41
2023-01-20T14:48:24.796Z,50.36
2023-01-20T14:51:02.595Z,50.69
2023-01-20T14:53:29.199Z,50.49
2023-01-20T14:56:07.939Z,50.68
2023-01-20T14:58:36.090Z,51.11
2023-01-20T15:01:04.869Z,51.03
2023-01-20T15:03:31.660Z,51.63
2023-01-20T15:06:16.136Z,52.08
2023-01-20T15:09:05.155Z,51.75
2023-01-20T15:11:33.413Z,52.12
2023-01-20T15:14:05.039Z,51.63
2023-01-20T15:16:47.208Z,52.05
2023-01-20T15:19:16.866Z,52.26
2023-01-20T15:21:58.351Z,51.99
2023-01-20T15:24:32.433Z,52.13
2023-01-20T15:27:00.857Z,52.03
2023-01-20T15:29:30.699Z,52.14
2023-01-20T15:31:59.360Z,52.04
2023-01-20T15:34:27.420Z,52.03
2023-01-20T15:36:55.355Z,51.86
2023-01-20T15:39:29.051Z,51.62
2023-01-20T15:41:59.326Z,51.63
2023-01-20T15:44:26.329Z,51.61
2023-01-20T15:46:56.979Z,51.65
2023-01-20T15:49:25.427Z,51.38
2023-01-20T15:51:52.730Z,51.22
2023-01-20T15:54:19.692Z,51.32
2023-01-20T15:56:46.708Z,51.40
2023-01-20T15:59:15.532Z,51.41
2023-01-20T16:01:42.454Z,51.37
2023-01-20T16:04:09.977Z,51.19
2023-01-20T16:06:37.397Z,51.38
2023-01-20T16:09:16.143Z,51.51
2023-01-20T16:11:42.855Z,51.71
2023-01-20T16:14:09.395Z,51.48
2023-01-20T16:16:35.995Z,51.78
2023-01-20T16:19:02.580Z,51.46
2023-01-20T16:21:29.078Z,52.36
2023-01-20T16:23:55.604Z,51.91
2023-01-20T16:26:27.330Z,51.64
2023-01-20T16:28:56.075Z,51.77
2023-01-20T16:31:24.252Z,52.10
2023-01-20T16:33:52.707Z,51.88
2023-01-20T16:36:21.357Z,52.28
2023-01-20T16:38:48.800Z,52.26
2023-01-20T16:41:19.891Z,52.54
2023-01-20T16:43:46.518Z,52.71
2023-01-20T16:46:17.931Z,52.91
2023-01-20T16:48:44.989Z,52.77
2023-01-20T16:51:17.478Z,53.21
2023-01-20T16:53:44.409Z,53.14
2023-01-20T16:56:16.857Z,53.07
2023-01-20T16:58:43.539Z,53.17
2023-01-20T17:01:12.878Z,53.30
2023-01-20T17:03:40.945Z,53.70
2023-01-20T17:06:22.294Z,53.87
2023-01-20T17:08:51.642Z,53.43
2023-01-20T17:11:21.599Z,53.99
2023-01-20T17:13:48.852Z,53.52
2023-01-20T17:16:16.221Z,54.07
2023-01-20T17:18:45.610Z,54.28
2023-01-20T17:21:13.626Z,53.86
2023-01-20T17:23:41.128Z,54.22
2023-01-20T17:26:09.013Z,54.61
2023-01-20T17:28:35.711Z,55.01
2023-01-20T17:31:04.209Z,54.83
2023-01-20T17:33:31.171Z,55.27
2023-01-20T17:35:59.667Z,55.19
2023-01-20T17:38:28.121Z,55.56
2023-01-20T17:40:59.773Z,54.80
2023-01-20T17:43:26.259Z,54.81
2023-01-20T17:45:52.785Z,54.55
2023-01-20T17:48:19.308Z,54.63
2023-01-20T17:50:45.828Z,54.63
2023-01-20T17:53:12.882Z,54.69
2023-01-20T17:55:40.102Z,54.79
2023-01-20T17:58:06.634Z,55.14
2023-01-20T18:00:33.146Z,55.64
2023-01-20T18:03:00.228Z,55.51
2023-01-20T18:05:27.676Z,55.32
2023-01-20T18:07:54.221Z,55.32
2023-01-20T18:10:20.728Z,55.57
2023-01-20T18:12:47.217Z,55.21
2023-01-20T18:15:14.240Z,55.72
2023-01-20T18:17:43.497Z,55.87
2023-01-20T18:20:11.081Z,55.46
2023-01-20T18:22:37.678Z,56.00
2023-01-20T18:25:04.913Z,55.68
2023-01-20T18:27:31.414Z,55.95
2023-01-20T18:29:57.937Z,55.98
2023-01-20T18:32:24.728Z,55.69
2023-01-20T18:34:51.212Z,55.50
2023-01-20T18:37:17.688Z,55.68
2023-01-20T18:39:45.499Z,55.62
2023-01-20T18:42:12.025Z,55.91
2023-01-20T18:44:38.515Z,56.03
2023-01-20T18:47:05.076Z,56.56
2023-01-20T18:49:31.850Z,56.27
2023-01-20T18:51:58.387Z,56.00
2023-01-20T18:54:25.828Z,56.29
2023-01-20T18:56:52.728Z,56.42
2023-01-20T18:59:19.574Z,56.72
2023-01-20T19:01:46.133Z,57.00
2023-01-20T19:04:13.495Z,57.53
2023-01-20T19:06:42.249Z,57.57
2023-01-20T19:09:09.652Z,57.47
2023-01-20T19:11:42.204Z,57.20
2023-01-20T19:14:11.550Z,56.87
2023-01-20T19:16:42.095Z,56.98
2023-01-20T19:19:10.662Z,56.64
2023-01-20T19:21:38.869Z,56.92
2023-01-20T19:24:07.776Z,57.11
2023-01-20T19:26:36.527Z,57.61
2023-01-20T19:29:06.416Z,57.56
2023-01-20T19:31:35.857Z,56.99
2023-01-20T19:34:02.716Z,57.09
2023-01-20T19:36:29.701Z,57.35
2023-01-20T19:38:56.385Z,57.36
2023-01-20T19:41:28.238Z,57.41
2023-01-20T19:43:57.248Z,57.43
2023-01-20T19:46:26.312Z,57.80
2023-01-20T19:48:54.490Z,58.06
2023-01-20T19:51:21.490Z,57.74
2023-01-20T19:53:50.135Z,57.80
2023-01-20T19:56:18.278Z,57.61
2023-01-20T19:58:45.964Z,57.40
2023-01-20T20:01:22.569Z,57.07
2023-01-20T20:03:53.945Z,57.47
2023-01-20T20:06:30.260Z,57.28
2023-01-20T20:09:03.151Z,57.58
2023-01-20T20:11:30.534Z,57.30
2023-01-20T20:13:58.576Z,57.81
2023-01-20T20:16:26.854Z,58.16
2023-01-20T20:18:57.126Z,58.27
2023-01-20T20:21:24.566Z,58.09
2023-01-20T20:24:01.354Z,57.44
2023-01-20T20:26:31.454Z,57.49
2023-01-20T20:28:59.416Z,58.09
2023-01-20T20:31:30.935Z,57.88
2023-01-20T20:33:58.937Z,57.36
2023-01-20T20:36:28.417Z,57.35
2023-01-20T20:38:55.766Z,57.22
2023-01-20T20:41:22.348Z,56.97
2023-01-20T20:43:48.848Z,56.78
2023-01-20T20:46:16.241Z,56.76
2023-01-20T20:48:43.253Z,57.03
2023-01-20T20:51:13.401Z,56.51
2023-01-20T20:53:40.888Z,56.25
2023-01-20T20:56:15.312Z,56.67
2023-01-20T20:58:59.793Z,56.71
2023-01-20T21:01:28.487Z,56.19
2023-01-20T21:03:57.485Z,56.22
2023-01-20T21:06:24.322Z,55.99
2023-01-20T21:08:51.283Z,56.21
2023-01-20T21:11:19.988Z,56.00
2023-01-20T21:13:49.012Z,55.94
2023-01-20T21:16:17.034Z,56.17
2023-01-20T21:18:43.567Z,56.01
2023-01-20T21:21:14.483Z,55.81
2023-01-20T21:23:41.695Z,55.99
2023-01-20T21:26:12.004Z,55.42
2023-01-20T21:28:39.878Z,55.65
2023-01-20T21:31:11.602Z,55.71
2023-01-20T21:33:40.658Z,55.83
2023-01-20T21:36:09.198Z,55.41
2023-01-20T21:38:37.460Z,55.66
2023-01-20T21:41:05.400Z,55.54
2023-01-20T21:43:51.114Z,55.60
2023-01-20T21:46:17.921Z,55.93
2023-01-20T21:49:03.315Z,55.48
2023-01-20T21:51:48.486Z,55.79
2023-01-20T21:54:17.009Z,55.61
2023-01-20T21:56:43.865Z,55.71
2023-01-20T21:59:10.406Z,55.74
2023-01-20T22:01:37.523Z,56.07
2023-01-20T22:04:04.604Z,55.53
2023-01-20T22:06:31.107Z,55.47
2023-01-20T22:09:00.332Z,55.64
2023-01-20T22:11:27.386Z,55.80
2023-01-20T22:13:55.880Z,55.47
2023-01-20T22:16:23.514Z,55.54
2023-01-20T22:18:50.799Z,55.64
2023-01-20T22:21:17.977Z,56.39
2023-01-20T22:23:45.096Z,57.02
2023-01-20T22:26:11.754Z,56.99
2023-01-20T22:28:40.090Z,56.95
2023-01-20T22:31:11.178Z,56.91
2023-01-20T22:33:38.420Z,56.72
2023-01-20T22:36:05.952Z,56.55
2023-01-20T22:38:32.540Z,56.42
2023-01-20T22:41:04.219Z,56.08
2023-01-20T22:43:30.863Z,56.66
2023-01-20T22:45:59.625Z,56.31
2023-01-20T22:48:26.285Z,57.02
2023-01-20T22:50:54.565Z,57.18
2023-01-20T22:53:21.294Z,57.29
2023-01-20T22:56:00.309Z,56.88
2023-01-20T22:58:27.557Z,56.30
2023-01-20T23:00:54.200Z,55.91
2023-01-20T23:03:20.756Z,56.21
2023-01-20T23:05:54.447Z,56.26
2023-01-20T23:08:21.029Z,56.01
2023-01-20T23:10:47.543Z,56.25
2023-01-20T23:13:17.553Z,56.36
2023-01-20T23:15:44.402Z,56.36
2023-01-20T23:18:12.074Z,55.91
2023-01-20T23:20:38.736Z,56.18
2023-01-20T23:23:05.704Z,56.10
2023-01-20T23:25:32.958Z,55.67
2023-01-20T23:27:59.456Z,55.86
2023-01-20T23:30:26.683Z,55.84
2023-01-20T23:32:53.958Z,55.49
2023-01-20T23:35:20.542Z,55.95
2023-01-20T23:37:47.057Z,56.07
2023-01-20T23:40:13.642Z,56.15
2023-01-20T23:42:40.761Z,56.44
2023-01-20T23:45:08.038Z,55.87
2023-01-20T23:47:34.764Z,56.28
2023-01-20T23:50:01.251Z,55.80
2023-01-20T23:52:28.001Z,55.95
2023-01-20T23:54:54.934Z,56.23
2023-01-20T23:57:22.009Z,56.46
2023-01-20T23:59:48.516Z,56.44
